Thunder radar more information blitzortung!


Radar de pluja more information rain snow radar


Visita la nostra xarxa de llocs de meteo:

Template documentation
and downloads

And another site



No particular awareness of the weather is required.    There are no Weather-warnings

Pagina Historial Weather Underground text

Diari Resum Novembre 26, 2017 Unitats:  Tant    Imperial   Mètric
« Previous Dia
SegĂźent Dia »
Diari Setmana Mensual Anual Personalitzada
  Maxima: Minima: Media:
Temperatura: TemperatureC °F /  -17.8 °C 3.8 °F /  -15.7 °C 8.5 °F /  -13.1 °C
Punt de rosada: DewpointC °F /  -17.8 °C -5.9 °F /  -21.1 °C -2.2 °F /  -19 °C
Humitat: Humidity % 38 % 47 %
Wind Speed: WindSpeedKMH mph /  0 km/h - 3.7 mph /  6 km/h
RĂ fegues de vent: WindSpeedGustKMH mph /  0 km/h - -
Vent:- - South
Pression baro: PressurehPa in /  0 hPa 1022.9 in /  34635.4 hPa -
Precipitacions: 0.0 in /  0 mm    
Historical Graphs
 
 
Dades de taula per Novembre 26, 2017
Temps Temperatura Punt de rosada Pression baro Vent Wind Speed RĂ fegues de vent Humitat Rainfall Rate (Hourly)
TemperatureC °F /  -17.8 °C DewpointC °F /  -17.8 °C PressurehPa in /  0 hPa Calm     Humidity % HourlyPrecipMM in /  0 mm
00:01 8.4 °F /  -13.1 °C -1.4 °F /  -18.6 °C 1023.9 in /  34669.3 hPa WSW 3.9 mph /  6.3 km/h 3.9 mph /  6.3 km/h 50 % 0.0 in /  0 mm
00:05 5.2 °F /  -14.9 °C -3.9 °F /  -19.9 °C 1026.0 in /  34740.4 hPa Calm   3.2 mph /  5.1 km/h 52 % 0.0 in /  0 mm
00:06 8.3 °F /  -13.2 °C -1.6 °F /  -18.7 °C 1023.9 in /  34669.3 hPa SW 1.9 mph /  3.1 km/h   50 % 0.0 in /  0 mm
00:11 8.1 °F /  -13.3 °C -1.7 °F /  -18.7 °C 1023.9 in /  34669.3 hPa Calm     50 % 0.0 in /  0 mm
00:15 4.9 °F /  -15.1 °C -4.2 °F /  -20.1 °C 1026.0 in /  34740.4 hPa East 1.6 mph /  2.6 km/h 3.2 mph /  5.1 km/h 52 % 0.0 in /  0 mm
00:16 8.0 °F /  -13.3 °C -1.8 °F /  -18.8 °C 1022.9 in /  34635.4 hPa Calm     50 % 0.0 in /  0 mm
00:25 4.8 °F /  -15.1 °C -4.2 °F /  -20.1 °C 1026.0 in /  34740.4 hPa Calm   3.2 mph /  5.1 km/h 52 % 0.0 in /  0 mm
00:35 4.7 °F /  -15.2 °C -4.1 °F /  -20.1 °C 1026.0 in /  34740.4 hPa SW 1.6 mph /  2.6 km/h 3.2 mph /  5.1 km/h 53 % 0.0 in /  0 mm
00:45 4.6 °F /  -15.2 °C -4.2 °F /  -20.1 °C 1026.0 in /  34740.4 hPa WSW 1.6 mph /  2.6 km/h 3.2 mph /  5.1 km/h 53 % 0.0 in /  0 mm
00:55 4.6 °F /  -15.2 °C -4.2 °F /  -20.1 °C 1026.0 in /  34740.4 hPa West 1.6 mph /  2.6 km/h 3.2 mph /  5.1 km/h 53 % 0.0 in /  0 mm
01:05 4.5 °F /  -15.3 °C -4.3 °F /  -20.2 °C 1026.0 in /  34740.4 hPa West 1.6 mph /  2.6 km/h   53 % 0.0 in /  0 mm
01:15 4.3 °F /  -15.4 °C -4.2 °F /  -20.1 °C 1026.0 in /  34740.4 hPa Calm   1.6 mph /  2.6 km/h 54 % 0.0 in /  0 mm
01:25 4.3 °F /  -15.4 °C -4.2 °F /  -20.1 °C 1026.0 in /  34740.4 hPa NNE 3.2 mph /  5.1 km/h 4.8 mph /  7.7 km/h 54 % 0.0 in /  0 mm
01:35 4.4 °F /  -15.3 °C -4.1 °F /  -20.1 °C 1026.0 in /  34740.4 hPa NE 3.2 mph /  5.1 km/h 6.4 mph /  10.3 km/h 54 % 0.0 in /  0 mm
01:45 4.4 °F /  -15.3 °C -4.1 °F /  -20.1 °C 1026.0 in /  34740.4 hPa NNE 3.2 mph /  5.1 km/h 3.2 mph /  5.1 km/h 54 % 0.0 in /  0 mm
01:55 4.5 °F /  -15.3 °C -4.0 °F /  -20 °C 1026.0 in /  34740.4 hPa NNW 3.2 mph /  5.1 km/h 6.4 mph /  10.3 km/h 54 % 0.0 in /  0 mm
02:05 4.7 °F /  -15.2 °C -3.8 °F /  -19.9 °C 1027.0 in /  34774.2 hPa NNE 8.0 mph /  12.9 km/h 8.0 mph /  12.9 km/h 54 % 0.0 in /  0 mm
02:15 4.7 °F /  -15.2 °C -3.6 °F /  -19.8 °C 1027.0 in /  34774.2 hPa NE 3.2 mph /  5.1 km/h 8.0 mph /  12.9 km/h 55 % 0.0 in /  0 mm
02:25 4.7 °F /  -15.2 °C -3.6 °F /  -19.8 °C 1027.0 in /  34774.2 hPa North 3.2 mph /  5.1 km/h 4.8 mph /  7.7 km/h 55 % 0.0 in /  0 mm
02:35 4.7 °F /  -15.2 °C -3.6 °F /  -19.8 °C 1027.0 in /  34774.2 hPa NNW 3.2 mph /  5.1 km/h 4.8 mph /  7.7 km/h 55 % 0.0 in /  0 mm
02:45 4.9 °F /  -15.1 °C -3.4 °F /  -19.7 °C 1027.0 in /  34774.2 hPa NNE 1.6 mph /  2.6 km/h 4.8 mph /  7.7 km/h 55 % 0.0 in /  0 mm
02:55 5.0 °F /  -15 °C -3.3 °F /  -19.6 °C 1028.0 in /  34808.1 hPa NNE 1.6 mph /  2.6 km/h 3.2 mph /  5.1 km/h 55 % 0.0 in /  0 mm
03:05 5.2 °F /  -14.9 °C -3.1 °F /  -19.5 °C 1028.0 in /  34808.1 hPa North 3.2 mph /  5.1 km/h 3.2 mph /  5.1 km/h 55 % 0.0 in /  0 mm
03:15 5.4 °F /  -14.8 °C -2.9 °F /  -19.4 °C 1028.0 in /  34808.1 hPa North 1.6 mph /  2.6 km/h 4.8 mph /  7.7 km/h 55 % 0.0 in /  0 mm
03:25 5.5 °F /  -14.7 °C -2.8 °F /  -19.3 °C 1028.0 in /  34808.1 hPa NNE 1.6 mph /  2.6 km/h 6.4 mph /  10.3 km/h 55 % 0.0 in /  0 mm
03:35 5.9 °F /  -14.5 °C -2.4 °F /  -19.1 °C 1028.0 in /  34808.1 hPa Calm   4.8 mph /  7.7 km/h 55 % 0.0 in /  0 mm
03:45 6.2 °F /  -14.3 °C -2.2 °F /  -19 °C 1028.0 in /  34808.1 hPa Calm   3.2 mph /  5.1 km/h 55 % 0.0 in /  0 mm
03:55 6.9 °F /  -13.9 °C -1.6 °F /  -18.7 °C 1028.0 in /  34808.1 hPa NNW 1.6 mph /  2.6 km/h 3.2 mph /  5.1 km/h 55 % 0.0 in /  0 mm
04:05 7.4 °F /  -13.7 °C -1.3 °F /  -18.5 °C 1028.0 in /  34808.1 hPa North 1.6 mph /  2.6 km/h 3.2 mph /  5.1 km/h 54 % 0.0 in /  0 mm
04:15 8.2 °F /  -13.2 °C -0.6 °F /  -18.1 °C 1028.0 in /  34808.1 hPa NNW 1.6 mph /  2.6 km/h 3.2 mph /  5.1 km/h 54 % 0.0 in /  0 mm
04:25 8.3 °F /  -13.2 °C -0.7 °F /  -18.2 °C 1028.0 in /  34808.1 hPa WSW 1.6 mph /  2.6 km/h 4.8 mph /  7.7 km/h 53 % 0.0 in /  0 mm
04:35 8.5 °F /  -13.1 °C -0.6 °F /  -18.1 °C 1028.0 in /  34808.1 hPa SW 1.6 mph /  2.6 km/h 3.2 mph /  5.1 km/h 53 % 0.0 in /  0 mm
04:45 8.5 °F /  -13.1 °C -0.8 °F /  -18.2 °C 1028.0 in /  34808.1 hPa SSW 3.2 mph /  5.1 km/h 4.8 mph /  7.7 km/h 52 % 0.0 in /  0 mm
04:55 8.6 °F /  -13 °C -0.7 °F /  -18.2 °C 1029.0 in /  34841.9 hPa East 3.2 mph /  5.1 km/h 4.8 mph /  7.7 km/h 52 % 0.0 in /  0 mm
05:05 9.0 °F /  -12.8 °C -0.3 °F /  -17.9 °C 1029.0 in /  34841.9 hPa ENE 1.6 mph /  2.6 km/h 6.4 mph /  10.3 km/h 52 % 0.0 in /  0 mm
05:15 9.2 °F /  -12.7 °C -0.2 °F /  -17.9 °C 1029.0 in /  34841.9 hPa NE 1.6 mph /  2.6 km/h 4.8 mph /  7.7 km/h 52 % 0.0 in /  0 mm
05:25 9.4 °F /  -12.6 °C 0.0 °F /  -17.8 °C 1030.0 in /  34875.8 hPa NE 4.8 mph /  7.7 km/h 4.8 mph /  7.7 km/h 52 % 0.0 in /  0 mm
05:35 9.2 °F /  -12.7 °C -0.4 °F /  -18 °C 1029.0 in /  34841.9 hPa NE 3.2 mph /  5.1 km/h 4.8 mph /  7.7 km/h 51 % 0.0 in /  0 mm
05:45 9.9 °F /  -12.3 °C 0.2 °F /  -17.7 °C 1029.0 in /  34841.9 hPa ENE 1.6 mph /  2.6 km/h 3.2 mph /  5.1 km/h 51 % 0.0 in /  0 mm
11:45 9.7 °F /  -12.4 °C 0.1 °F /  -17.7 °C 1030.0 in /  34875.8 hPa East 3.9 mph /  6.3 km/h 3.9 mph /  6.3 km/h 51 % 0.0 in /  0 mm
11:50 10.2 °F /  -12.1 °C 0.8 °F /  -17.3 °C 1030.0 in /  34875.8 hPa ESE 3.9 mph /  6.3 km/h 3.9 mph /  6.3 km/h 52 % 0.0 in /  0 mm
11:55 10.2 °F /  -12.1 °C 0.5 °F /  -17.5 °C 1030.0 in /  34875.8 hPa SE 3.9 mph /  6.3 km/h 3.9 mph /  6.3 km/h 51 % 0.0 in /  0 mm
12:00 10.4 °F /  -12 °C 0.7 °F /  -17.4 °C 1030.0 in /  34875.8 hPa East 3.7 mph /  6 km/h 3.7 mph /  6 km/h 51 % 0.0 in /  0 mm
12:05 10.9 °F /  -11.7 °C 1.2 °F /  -17.1 °C 1030.0 in /  34875.8 hPa NW 3.5 mph /  5.6 km/h 3.5 mph /  5.6 km/h 51 % 0.0 in /  0 mm
12:10 10.8 °F /  -11.8 °C 1.1 °F /  -17.2 °C 1030.0 in /  34875.8 hPa NNE 1.9 mph /  3.1 km/h 1.9 mph /  3.1 km/h 51 % 0.0 in /  0 mm
12:15 10.6 °F /  -11.9 °C 0.9 °F /  -17.3 °C 1030.0 in /  34875.8 hPa East 5.8 mph /  9.3 km/h 5.8 mph /  9.3 km/h 51 % 0.0 in /  0 mm
12:20 10.8 °F /  -11.8 °C 1.1 °F /  -17.2 °C 1030.0 in /  34875.8 hPa NNE 3.7 mph /  6 km/h 3.7 mph /  6 km/h 51 % 0.0 in /  0 mm
12:25 11.0 °F /  -11.7 °C 1.2 °F /  -17.1 °C 1030.0 in /  34875.8 hPa East 3.7 mph /  6 km/h 3.7 mph /  6 km/h 51 % 0.0 in /  0 mm
12:30 11.4 °F /  -11.4 °C 1.6 °F /  -16.9 °C 1029.0 in /  34841.9 hPa ENE 3.5 mph /  5.6 km/h 3.5 mph /  5.6 km/h 51 % 0.0 in /  0 mm
12:40 11.4 °F /  -11.4 °C 1.6 °F /  -16.9 °C 1029.0 in /  34841.9 hPa East 5.6 mph /  9 km/h 5.6 mph /  9 km/h 51 % 0.0 in /  0 mm
12:45 11.4 °F /  -11.4 °C 1.3 °F /  -17.1 °C 1029.0 in /  34841.9 hPa ESE 5.6 mph /  9 km/h 5.6 mph /  9 km/h 50 % 0.0 in /  0 mm
12:50 11.7 °F /  -11.3 °C 1.9 °F /  -16.7 °C 1029.0 in /  34841.9 hPa ESE 7.2 mph /  11.6 km/h 7.2 mph /  11.6 km/h 51 % 0.0 in /  0 mm
12:55 11.6 °F /  -11.3 °C 1.5 °F /  -16.9 °C 1029.0 in /  34841.9 hPa ESE 5.6 mph /  9 km/h 5.6 mph /  9 km/h 50 % 0.0 in /  0 mm
13:00 11.7 °F /  -11.3 °C 1.6 °F /  -16.9 °C 1028.0 in /  34808.1 hPa ENE 5.6 mph /  9 km/h 5.6 mph /  9 km/h 50 % 0.0 in /  0 mm
13:05 12.0 °F /  -11.1 °C 1.9 °F /  -16.7 °C 1028.0 in /  34808.1 hPa East 5.6 mph /  9 km/h 5.6 mph /  9 km/h 50 % 0.0 in /  0 mm
13:10 12.3 °F /  -10.9 °C 2.4 °F /  -16.4 °C 1028.0 in /  34808.1 hPa ESE 4.2 mph /  6.8 km/h 4.2 mph /  6.8 km/h 51 % 0.0 in /  0 mm
13:15 12.7 °F /  -10.7 °C 2.6 °F /  -16.3 °C 1028.0 in /  34808.1 hPa South 3.9 mph /  6.3 km/h 3.9 mph /  6.3 km/h 50 % 0.0 in /  0 mm
13:20 13.2 °F /  -10.4 °C 3.3 °F /  -15.9 °C 1028.0 in /  34808.1 hPa WSW 7.4 mph /  11.9 km/h 7.4 mph /  11.9 km/h 51 % 0.0 in /  0 mm
13:25 13.4 °F /  -10.3 °C 3.4 °F /  -15.9 °C 1028.0 in /  34808.1 hPa SSE 3.7 mph /  6 km/h 3.7 mph /  6 km/h 51 % 0.0 in /  0 mm
13:30 13.3 °F /  -10.4 °C 3.4 °F /  -15.9 °C 1028.0 in /  34808.1 hPa ENE 4.2 mph /  6.8 km/h 4.2 mph /  6.8 km/h 51 % 0.0 in /  0 mm
13:35 13.2 °F /  -10.4 °C 3.0 °F /  -16.1 °C 1028.0 in /  34808.1 hPa SW 5.6 mph /  9 km/h 5.6 mph /  9 km/h 50 % 0.0 in /  0 mm
13:40 13.2 °F /  -10.4 °C 3.3 °F /  -15.9 °C 1028.0 in /  34808.1 hPa SSW 7.4 mph /  11.9 km/h 7.4 mph /  11.9 km/h 51 % 0.0 in /  0 mm
13:45 13.2 °F /  -10.4 °C 3.0 °F /  -16.1 °C 1027.0 in /  34774.2 hPa SSE 3.7 mph /  6 km/h 3.7 mph /  6 km/h 50 % 0.0 in /  0 mm
13:50 13.3 °F /  -10.4 °C 3.1 °F /  -16.1 °C 1027.0 in /  34774.2 hPa SW 7.4 mph /  11.9 km/h 7.4 mph /  11.9 km/h 50 % 0.0 in /  0 mm
13:55 13.3 °F /  -10.4 °C 2.8 °F /  -16.2 °C 1027.0 in /  34774.2 hPa South 9.3 mph /  15 km/h 9.3 mph /  15 km/h 49 % 0.0 in /  0 mm
14:00 13.5 °F /  -10.3 °C 3.0 °F /  -16.1 °C 1027.0 in /  34774.2 hPa WSW 9.3 mph /  15 km/h 9.3 mph /  15 km/h 49 % 0.0 in /  0 mm
14:05 13.6 °F /  -10.2 °C 2.8 °F /  -16.2 °C 1027.0 in /  34774.2 hPa SW 13.0 mph /  20.9 km/h 13.0 mph /  20.9 km/h 48 % 0.0 in /  0 mm
14:10 13.6 °F /  -10.2 °C 2.2 °F /  -16.6 °C 1027.0 in /  34774.2 hPa SSW 7.4 mph /  11.9 km/h 7.4 mph /  11.9 km/h 46 % 0.0 in /  0 mm
14:15 13.5 °F /  -10.3 °C 1.8 °F /  -16.8 °C 1028.0 in /  34808.1 hPa WSW 7.4 mph /  11.9 km/h 7.4 mph /  11.9 km/h 45 % 0.0 in /  0 mm
14:20 13.8 °F /  -10.1 °C 2.1 °F /  -16.6 °C 1028.0 in /  34808.1 hPa WNW 13.0 mph /  20.9 km/h 13.0 mph /  20.9 km/h 45 % 0.0 in /  0 mm
14:21 13.9 °F /  -10.1 °C 2.4 °F /  -16.4 °C 1028.0 in /  34808.1 hPa WSW 7.4 mph /  11.9 km/h 7.4 mph /  11.9 km/h 46 % 0.0 in /  0 mm
14:26 14.0 °F /  -10 °C 2.2 °F /  -16.6 °C 1028.0 in /  34808.1 hPa SSW 3.7 mph /  6 km/h 3.7 mph /  6 km/h 45 % 0.0 in /  0 mm
14:31 14.1 °F /  -9.9 °C 2.3 °F /  -16.5 °C 1028.0 in /  34808.1 hPa West 5.6 mph /  9 km/h 5.6 mph /  9 km/h 45 % 0.0 in /  0 mm
14:36 14.2 °F /  -9.9 °C 2.1 °F /  -16.6 °C 1028.0 in /  34808.1 hPa WNW 5.6 mph /  9 km/h 5.6 mph /  9 km/h 44 % 0.0 in /  0 mm
14:41 14.2 °F /  -9.9 °C 2.1 °F /  -16.6 °C 1028.0 in /  34808.1 hPa SSW 7.4 mph /  11.9 km/h 7.4 mph /  11.9 km/h 44 % 0.0 in /  0 mm
14:46 14.2 °F /  -9.9 °C 1.8 °F /  -16.8 °C 1028.0 in /  34808.1 hPa WNW 7.4 mph /  11.9 km/h 7.4 mph /  11.9 km/h 43 % 0.0 in /  0 mm
14:51 13.7 °F /  -10.2 °C 1.7 °F /  -16.8 °C 1028.0 in /  34808.1 hPa ENE 5.0 mph /  8 km/h 5.0 mph /  8 km/h 44 % 0.0 in /  0 mm
14:56 13.6 °F /  -10.2 °C 1.9 °F /  -16.7 °C 1028.0 in /  34808.1 hPa West 5.6 mph /  9 km/h 5.6 mph /  9 km/h 45 % 0.0 in /  0 mm
15:01 13.6 °F /  -10.2 °C 1.6 °F /  -16.9 °C 1028.0 in /  34808.1 hPa WSW 3.9 mph /  6.3 km/h 3.9 mph /  6.3 km/h 44 % 0.0 in /  0 mm
15:06 13.5 °F /  -10.3 °C 1.4 °F /  -17 °C 1028.0 in /  34808.1 hPa NNE 3.7 mph /  6 km/h 3.7 mph /  6 km/h 44 % 0.0 in /  0 mm
15:11 13.8 °F /  -10.1 °C 2.1 °F /  -16.6 °C 1028.0 in /  34808.1 hPa NNW 3.7 mph /  6 km/h 3.7 mph /  6 km/h 45 % 0.0 in /  0 mm
15:16 14.0 °F /  -10 °C 1.9 °F /  -16.7 °C 1027.0 in /  34774.2 hPa WSW 7.4 mph /  11.9 km/h 7.4 mph /  11.9 km/h 44 % 0.0 in /  0 mm
15:21 14.3 °F /  -9.8 °C 1.9 °F /  -16.7 °C 1027.0 in /  34774.2 hPa SW 7.9 mph /  12.7 km/h 7.9 mph /  12.7 km/h 43 % 0.0 in /  0 mm
15:26 14.1 °F /  -9.9 °C 1.4 °F /  -17 °C 1027.0 in /  34774.2 hPa West 9.3 mph /  15 km/h 9.3 mph /  15 km/h 42 % 0.0 in /  0 mm
15:31 14.1 °F /  -9.9 °C 1.1 °F /  -17.2 °C 1028.0 in /  34808.1 hPa West 13.0 mph /  20.9 km/h 13.0 mph /  20.9 km/h 41 % 0.0 in /  0 mm
15:36 13.8 °F /  -10.1 °C 0.1 °F /  -17.7 °C 1028.0 in /  34808.1 hPa WNW 11.1 mph /  17.9 km/h 11.1 mph /  17.9 km/h 39 % 0.0 in /  0 mm
15:41 13.7 °F /  -10.2 °C 0.0 °F /  -17.8 °C 1028.0 in /  34808.1 hPa West 9.3 mph /  15 km/h 9.3 mph /  15 km/h 39 % 0.0 in /  0 mm
15:46 13.8 °F /  -10.1 °C 0.1 °F /  -17.7 °C 1028.0 in /  34808.1 hPa SW 9.3 mph /  15 km/h 9.7 mph /  15.6 km/h 39 % 0.0 in /  0 mm
15:51 13.6 °F /  -10.2 °C -0.1 °F /  -17.8 °C 1028.0 in /  34808.1 hPa West 13.0 mph /  20.9 km/h 13.0 mph /  20.9 km/h 39 % 0.0 in /  0 mm
15:56 13.5 °F /  -10.3 °C -0.6 °F /  -18.1 °C 1028.0 in /  34808.1 hPa West 16.7 mph /  26.9 km/h 16.7 mph /  26.9 km/h 38 % 0.0 in /  0 mm
16:01 13.5 °F /  -10.3 °C -0.6 °F /  -18.1 °C 1028.0 in /  34808.1 hPa SW 9.0 mph /  14.5 km/h 9.0 mph /  14.5 km/h 38 % 0.0 in /  0 mm
16:06 13.4 °F /  -10.3 °C -0.7 °F /  -18.2 °C 1028.0 in /  34808.1 hPa WSW 9.3 mph /  15 km/h 9.3 mph /  15 km/h 38 % 0.0 in /  0 mm
16:11 13.4 °F /  -10.3 °C -0.7 °F /  -18.2 °C 1028.0 in /  34808.1 hPa WNW 7.4 mph /  11.9 km/h 7.4 mph /  11.9 km/h 38 % 0.0 in /  0 mm
16:16 13.3 °F /  -10.4 °C -0.4 °F /  -18 °C 1028.0 in /  34808.1 hPa WNW 7.4 mph /  11.9 km/h 7.4 mph /  11.9 km/h 39 % 0.0 in /  0 mm
16:21 13.2 °F /  -10.4 °C -0.4 °F /  -18 °C 1028.0 in /  34808.1 hPa West 9.3 mph /  15 km/h 9.3 mph /  15 km/h 39 % 0.0 in /  0 mm
16:26 13.2 °F /  -10.4 °C -0.4 °F /  -18 °C 1028.0 in /  34808.1 hPa WSW 3.7 mph /  6 km/h 3.9 mph /  6.3 km/h 39 % 0.0 in /  0 mm
16:31 13.0 °F /  -10.6 °C -0.7 °F /  -18.2 °C 1029.0 in /  34841.9 hPa West 6.1 mph /  9.8 km/h 6.1 mph /  9.8 km/h 39 % 0.0 in /  0 mm
16:36 12.9 °F /  -10.6 °C -0.7 °F /  -18.2 °C 1029.0 in /  34841.9 hPa WSW 5.6 mph /  9 km/h 5.6 mph /  9 km/h 39 % 0.0 in /  0 mm
16:41 12.9 °F /  -10.6 °C -0.7 °F /  -18.2 °C 1029.0 in /  34841.9 hPa WSW 3.9 mph /  6.3 km/h 3.9 mph /  6.3 km/h 39 % 0.0 in /  0 mm
16:46 12.8 °F /  -10.7 °C -0.8 °F /  -18.2 °C 1028.0 in /  34808.1 hPa West 3.7 mph /  6 km/h 3.7 mph /  6 km/h 39 % 0.0 in /  0 mm
16:51 12.7 °F /  -10.7 °C -0.9 °F /  -18.3 °C 1028.0 in /  34808.1 hPa WSW 3.7 mph /  6 km/h 3.7 mph /  6 km/h 39 % 0.0 in /  0 mm
16:56 12.5 °F /  -10.8 °C -1.1 °F /  -18.4 °C 1028.0 in /  34808.1 hPa WSW 7.4 mph /  11.9 km/h 7.4 mph /  11.9 km/h 39 % 0.0 in /  0 mm
17:01 12.3 °F /  -10.9 °C -1.3 °F /  -18.5 °C 1028.0 in /  34808.1 hPa West 9.3 mph /  15 km/h 9.3 mph /  15 km/h 39 % 0.0 in /  0 mm
17:06 12.2 °F /  -11 °C -1.4 °F /  -18.6 °C 1028.0 in /  34808.1 hPa SW 9.3 mph /  15 km/h 9.3 mph /  15 km/h 39 % 0.0 in /  0 mm
17:11 11.8 °F /  -11.2 °C -1.7 °F /  -18.7 °C 1028.0 in /  34808.1 hPa WSW 5.6 mph /  9 km/h 5.6 mph /  9 km/h 39 % 0.0 in /  0 mm
17:16 11.6 °F /  -11.3 °C -1.9 °F /  -18.8 °C 1029.0 in /  34841.9 hPa WSW 5.6 mph /  9 km/h 5.6 mph /  9 km/h 39 % 0.0 in /  0 mm
17:21 11.3 °F /  -11.5 °C -2.2 °F /  -19 °C 1029.0 in /  34841.9 hPa SSW 6.1 mph /  9.8 km/h 6.1 mph /  9.8 km/h 39 % 0.0 in /  0 mm
17:26 11.1 °F /  -11.6 °C -2.3 °F /  -19.1 °C 1029.0 in /  34841.9 hPa WSW 3.9 mph /  6.3 km/h 3.9 mph /  6.3 km/h 39 % 0.0 in /  0 mm
17:31 11.0 °F /  -11.7 °C -2.4 °F /  -19.1 °C 1029.0 in /  34841.9 hPa WSW 1.9 mph /  3.1 km/h 1.9 mph /  3.1 km/h 39 % 0.0 in /  0 mm
17:36 10.9 °F /  -11.7 °C -2.6 °F /  -19.2 °C 1029.0 in /  34841.9 hPa NW 3.7 mph /  6 km/h 3.7 mph /  6 km/h 39 % 0.0 in /  0 mm
17:41 10.8 °F /  -11.8 °C -2.6 °F /  -19.2 °C 1029.0 in /  34841.9 hPa ENE 2.3 mph /  3.7 km/h 2.3 mph /  3.7 km/h 39 % 0.0 in /  0 mm
17:46 10.7 °F /  -11.8 °C -2.7 °F /  -19.3 °C 1029.0 in /  34841.9 hPa WSW 3.7 mph /  6 km/h 3.7 mph /  6 km/h 39 % 0.0 in /  0 mm
17:51 10.6 °F /  -11.9 °C -2.8 °F /  -19.3 °C 1029.0 in /  34841.9 hPa WSW 4.2 mph /  6.8 km/h 4.2 mph /  6.8 km/h 39 % 0.0 in /  0 mm
17:56 10.6 °F /  -11.9 °C -2.8 °F /  -19.3 °C 1029.0 in /  34841.9 hPa WSW 5.6 mph /  9 km/h 5.6 mph /  9 km/h 39 % 0.0 in /  0 mm
18:01 10.6 °F /  -11.9 °C -2.8 °F /  -19.3 °C 1029.0 in /  34841.9 hPa SW 1.9 mph /  3.1 km/h   39 % 0.0 in /  0 mm
18:06 10.4 °F /  -12 °C -3.0 °F /  -19.4 °C 1029.0 in /  34841.9 hPa East 1.9 mph /  3.1 km/h 2.3 mph /  3.7 km/h 39 % 0.0 in /  0 mm
18:11 10.3 °F /  -12.1 °C -3.1 °F /  -19.5 °C 1029.0 in /  34841.9 hPa ENE 2.6 mph /  4.2 km/h   39 % 0.0 in /  0 mm
18:16 10.1 °F /  -12.2 °C -3.3 °F /  -19.6 °C 1030.0 in /  34875.8 hPa ENE 3.2 mph /  5.1 km/h 3.2 mph /  5.1 km/h 39 % 0.0 in /  0 mm
18:21 10.0 °F /  -12.2 °C -3.3 °F /  -19.6 °C 1030.0 in /  34875.8 hPa NNE 3.7 mph /  6 km/h 3.7 mph /  6 km/h 39 % 0.0 in /  0 mm
18:26 9.8 °F /  -12.3 °C -3.5 °F /  -19.7 °C 1030.0 in /  34875.8 hPa NNE 1.9 mph /  3.1 km/h   39 % 0.0 in /  0 mm
18:31 9.6 °F /  -12.4 °C -3.7 °F /  -19.8 °C 1029.0 in /  34841.9 hPa Calm     39 % 0.0 in /  0 mm
18:36 9.3 °F /  -12.6 °C -3.9 °F /  -19.9 °C 1029.0 in /  34841.9 hPa NE 1.9 mph /  3.1 km/h 1.9 mph /  3.1 km/h 39 % 0.0 in /  0 mm
18:41 9.3 °F /  -12.6 °C -3.6 °F /  -19.8 °C 1029.0 in /  34841.9 hPa WNW 3.7 mph /  6 km/h 3.7 mph /  6 km/h 40 % 0.0 in /  0 mm
18:45 4.0 °F /  -15.6 °C -5.0 °F /  -20.6 °C 1030.0 in /  34875.8 hPa SW 1.6 mph /  2.6 km/h 3.2 mph /  5.1 km/h 52 % 0.0 in /  0 mm
18:46 9.4 °F /  -12.6 °C -3.6 °F /  -19.8 °C 1029.0 in /  34841.9 hPa West 1.9 mph /  3.1 km/h 1.9 mph /  3.1 km/h 40 % 0.0 in /  0 mm
18:51 9.4 °F /  -12.6 °C -3.6 °F /  -19.8 °C 1029.0 in /  34841.9 hPa SW 3.7 mph /  6 km/h 3.7 mph /  6 km/h 40 % 0.0 in /  0 mm
18:55 4.2 °F /  -15.4 °C -4.8 °F /  -20.4 °C 1029.0 in /  34841.9 hPa North 1.6 mph /  2.6 km/h 3.2 mph /  5.1 km/h 52 % 0.0 in /  0 mm
18:56 9.4 °F /  -12.6 °C -3.6 °F /  -19.8 °C 1029.0 in /  34841.9 hPa West 3.7 mph /  6 km/h 3.7 mph /  6 km/h 40 % 0.0 in /  0 mm
19:01 9.3 °F /  -12.6 °C -3.6 °F /  -19.8 °C 1029.0 in /  34841.9 hPa West 1.9 mph /  3.1 km/h   40 % 0.0 in /  0 mm
19:05 4.2 °F /  -15.4 °C -4.8 °F /  -20.4 °C 1029.0 in /  34841.9 hPa NNW 1.6 mph /  2.6 km/h 1.6 mph /  2.6 km/h 52 % 0.0 in /  0 mm
19:06 9.3 °F /  -12.6 °C -3.6 °F /  -19.8 °C 1029.0 in /  34841.9 hPa Calm     40 % 0.0 in /  0 mm
19:11 9.2 °F /  -12.7 °C -3.7 °F /  -19.8 °C 1029.0 in /  34841.9 hPa West 2.3 mph /  3.7 km/h 2.3 mph /  3.7 km/h 40 % 0.0 in /  0 mm
19:15 4.3 °F /  -15.4 °C -4.4 °F /  -20.2 °C 1029.0 in /  34841.9 hPa Calm   1.6 mph /  2.6 km/h 53 % 0.0 in /  0 mm
19:16 9.2 °F /  -12.7 °C -3.7 °F /  -19.8 °C 1029.0 in /  34841.9 hPa West 3.2 mph /  5.1 km/h   40 % 0.0 in /  0 mm
19:21 9.2 °F /  -12.7 °C -3.7 °F /  -19.8 °C 1029.0 in /  34841.9 hPa WSW 2.6 mph /  4.2 km/h 2.6 mph /  4.2 km/h 40 % 0.0 in /  0 mm
19:25 3.9 °F /  -15.6 °C -5.1 °F /  -20.6 °C 1029.0 in /  34841.9 hPa West 3.2 mph /  5.1 km/h 4.8 mph /  7.7 km/h 52 % 0.0 in /  0 mm
19:26 9.2 °F /  -12.7 °C -3.7 °F /  -19.8 °C 1029.0 in /  34841.9 hPa WNW 3.7 mph /  6 km/h 3.7 mph /  6 km/h 40 % 0.0 in /  0 mm
19:31 9.3 °F /  -12.6 °C -3.6 °F /  -19.8 °C 1029.0 in /  34841.9 hPa WSW 1.9 mph /  3.1 km/h 1.9 mph /  3.1 km/h 40 % 0.0 in /  0 mm
19:35 3.8 °F /  -15.7 °C -4.9 °F /  -20.5 °C 1029.0 in /  34841.9 hPa Calm   3.2 mph /  5.1 km/h 53 % 0.0 in /  0 mm
19:36 9.3 °F /  -12.6 °C -3.3 °F /  -19.6 °C 1029.0 in /  34841.9 hPa WNW 1.9 mph /  3.1 km/h 1.9 mph /  3.1 km/h 41 % 0.0 in /  0 mm
19:41 9.3 °F /  -12.6 °C -3.3 °F /  -19.6 °C 1029.0 in /  34841.9 hPa ENE 3.9 mph /  6.3 km/h 3.9 mph /  6.3 km/h 41 % 0.0 in /  0 mm
19:45 4.1 °F /  -15.5 °C -4.6 °F /  -20.3 °C 1029.0 in /  34841.9 hPa Calm   3.2 mph /  5.1 km/h 53 % 0.0 in /  0 mm
19:46 8.6 °F /  -13 °C -3.9 °F /  -19.9 °C 1029.0 in /  34841.9 hPa ENE 5.6 mph /  9 km/h 5.6 mph /  9 km/h 41 % 0.0 in /  0 mm
19:51 8.5 °F /  -13.1 °C -4.0 °F /  -20 °C 1029.0 in /  34841.9 hPa ESE 1.9 mph /  3.1 km/h   41 % 0.0 in /  0 mm
19:55 4.2 °F /  -15.4 °C -4.6 °F /  -20.3 °C 1029.0 in /  34841.9 hPa Calm     53 % 0.0 in /  0 mm
19:56 8.3 °F /  -13.2 °C -4.2 °F /  -20.1 °C 1029.0 in /  34841.9 hPa Calm     41 % 0.0 in /  0 mm
20:01 8.2 °F /  -13.2 °C -4.3 °F /  -20.2 °C 1029.0 in /  34841.9 hPa WNW 3.7 mph /  6 km/h 3.7 mph /  6 km/h 41 % 0.0 in /  0 mm
20:05 4.3 °F /  -15.4 °C -4.4 °F /  -20.2 °C 1029.0 in /  34841.9 hPa Calm   1.6 mph /  2.6 km/h 53 % 0.0 in /  0 mm
20:06 8.2 °F /  -13.2 °C -4.3 °F /  -20.2 °C 1029.0 in /  34841.9 hPa WNW 2.3 mph /  3.7 km/h 2.3 mph /  3.7 km/h 41 % 0.0 in /  0 mm
20:11 8.1 °F /  -13.3 °C -4.4 °F /  -20.2 °C 1029.0 in /  34841.9 hPa WNW 4.2 mph /  6.8 km/h 4.2 mph /  6.8 km/h 41 % 0.0 in /  0 mm
20:15 4.4 °F /  -15.3 °C -4.1 °F /  -20.1 °C 1029.0 in /  34841.9 hPa NNE 3.2 mph /  5.1 km/h 3.2 mph /  5.1 km/h 54 % 0.0 in /  0 mm
20:16 8.0 °F /  -13.3 °C -4.5 °F /  -20.3 °C 1028.0 in /  34808.1 hPa NW 3.2 mph /  5.1 km/h 3.2 mph /  5.1 km/h 41 % 0.0 in /  0 mm
20:21 8.0 °F /  -13.3 °C -4.5 °F /  -20.3 °C 1028.0 in /  34808.1 hPa NNE 3.7 mph /  6 km/h 3.7 mph /  6 km/h 41 % 0.0 in /  0 mm
20:25 4.2 °F /  -15.4 °C -4.3 °F /  -20.2 °C 1029.0 in /  34841.9 hPa Calm   1.6 mph /  2.6 km/h 54 % 0.0 in /  0 mm
20:26 8.0 °F /  -13.3 °C -4.5 °F /  -20.3 °C 1028.0 in /  34808.1 hPa WNW 1.9 mph /  3.1 km/h 1.9 mph /  3.1 km/h 41 % 0.0 in /  0 mm
20:31 8.1 °F /  -13.3 °C -4.4 °F /  -20.2 °C 1028.0 in /  34808.1 hPa WNW 1.9 mph /  3.1 km/h 2.3 mph /  3.7 km/h 41 % 0.0 in /  0 mm
20:35 4.3 °F /  -15.4 °C -4.2 °F /  -20.1 °C 1030.0 in /  34875.8 hPa Calm   1.6 mph /  2.6 km/h 54 % 0.0 in /  0 mm
20:36 8.3 °F /  -13.2 °C -3.9 °F /  -19.9 °C 1028.0 in /  34808.1 hPa NW 2.3 mph /  3.7 km/h 2.3 mph /  3.7 km/h 42 % 0.0 in /  0 mm
20:41 8.5 °F /  -13.1 °C -3.7 °F /  -19.8 °C 1028.0 in /  34808.1 hPa North 1.9 mph /  3.1 km/h   42 % 0.0 in /  0 mm
20:45 4.4 °F /  -15.3 °C -4.1 °F /  -20.1 °C 1030.0 in /  34875.8 hPa WNW 1.6 mph /  2.6 km/h 1.6 mph /  2.6 km/h 54 % 0.0 in /  0 mm
20:46 8.2 °F /  -13.2 °C -3.9 °F /  -19.9 °C 1028.0 in /  34808.1 hPa WNW 1.9 mph /  3.1 km/h 1.9 mph /  3.1 km/h 42 % 0.0 in /  0 mm
20:51 7.9 °F /  -13.4 °C -4.2 °F /  -20.1 °C 1028.0 in /  34808.1 hPa NNE 3.7 mph /  6 km/h 3.7 mph /  6 km/h 42 % 0.0 in /  0 mm
20:55 4.4 °F /  -15.3 °C -4.1 °F /  -20.1 °C 1029.0 in /  34841.9 hPa NNW 1.6 mph /  2.6 km/h 3.2 mph /  5.1 km/h 54 % 0.0 in /  0 mm
20:56 7.8 °F /  -13.4 °C -4.3 °F /  -20.2 °C 1028.0 in /  34808.1 hPa ENE 3.7 mph /  6 km/h 3.7 mph /  6 km/h 42 % 0.0 in /  0 mm
21:01 7.7 °F /  -13.5 °C -4.4 °F /  -20.2 °C 1029.0 in /  34841.9 hPa NNE 5.6 mph /  9 km/h 5.6 mph /  9 km/h 42 % 0.0 in /  0 mm
21:05 4.2 °F /  -15.4 °C -4.3 °F /  -20.2 °C 1029.0 in /  34841.9 hPa Calm   1.6 mph /  2.6 km/h 54 % 0.0 in /  0 mm
21:13 7.2 °F /  -13.8 °C -4.6 °F /  -20.3 °C 1029.0 in /  34841.9 hPa East 3.7 mph /  6 km/h 3.7 mph /  6 km/h 43 % 0.0 in /  0 mm
21:15 4.2 °F /  -15.4 °C -4.3 °F /  -20.2 °C 1029.0 in /  34841.9 hPa North 1.6 mph /  2.6 km/h 3.2 mph /  5.1 km/h 54 % 0.0 in /  0 mm
21:18 6.7 °F /  -14.1 °C -5.0 °F /  -20.6 °C 1029.0 in /  34841.9 hPa NE 3.7 mph /  6 km/h 3.9 mph /  6.3 km/h 43 % 0.0 in /  0 mm
21:23 6.5 °F /  -14.2 °C -5.2 °F /  -20.7 °C 1029.0 in /  34841.9 hPa NE 3.7 mph /  6 km/h 3.7 mph /  6 km/h 43 % 0.0 in /  0 mm
21:25 4.7 °F /  -15.2 °C -3.8 °F /  -19.9 °C 1029.0 in /  34841.9 hPa NE 3.2 mph /  5.1 km/h 4.8 mph /  7.7 km/h 54 % 0.0 in /  0 mm
21:28 6.3 °F /  -14.3 °C -5.1 °F /  -20.6 °C 1029.0 in /  34841.9 hPa NNE 1.9 mph /  3.1 km/h 1.9 mph /  3.1 km/h 44 % 0.0 in /  0 mm
21:33 6.2 °F /  -14.3 °C -5.2 °F /  -20.7 °C 1029.0 in /  34841.9 hPa WNW 3.7 mph /  6 km/h   44 % 0.0 in /  0 mm
21:35 4.7 °F /  -15.2 °C -3.8 °F /  -19.9 °C 1029.0 in /  34841.9 hPa NE 3.2 mph /  5.1 km/h 4.8 mph /  7.7 km/h 54 % 0.0 in /  0 mm
21:38 6.2 °F /  -14.3 °C -5.2 °F /  -20.7 °C 1029.0 in /  34841.9 hPa NNE 3.7 mph /  6 km/h 3.7 mph /  6 km/h 44 % 0.0 in /  0 mm
21:43 6.2 °F /  -14.3 °C -5.2 °F /  -20.7 °C 1029.0 in /  34841.9 hPa NNE 1.4 mph /  2.3 km/h   44 % 0.0 in /  0 mm
21:45 4.5 °F /  -15.3 °C -4.0 °F /  -20 °C 1029.0 in /  34841.9 hPa NE 4.8 mph /  7.7 km/h 6.4 mph /  10.3 km/h 54 % 0.0 in /  0 mm
21:48 6.2 °F /  -14.3 °C -4.9 °F /  -20.5 °C 1029.0 in /  34841.9 hPa North 3.7 mph /  6 km/h 3.7 mph /  6 km/h 45 % 0.0 in /  0 mm
21:53 6.2 °F /  -14.3 °C -5.2 °F /  -20.7 °C 1029.0 in /  34841.9 hPa NW 3.7 mph /  6 km/h 3.7 mph /  6 km/h 44 % 0.0 in /  0 mm
21:55 4.6 °F /  -15.2 °C -3.7 °F /  -19.8 °C 1029.0 in /  34841.9 hPa NE 3.2 mph /  5.1 km/h 6.4 mph /  10.3 km/h 55 % 0.0 in /  0 mm
21:58 6.2 °F /  -14.3 °C -4.9 °F /  -20.5 °C 1029.0 in /  34841.9 hPa WSW 1.9 mph /  3.1 km/h   45 % 0.0 in /  0 mm
22:03 6.0 °F /  -14.4 °C -5.1 °F /  -20.6 °C 1029.0 in /  34841.9 hPa Calm     45 % 0.0 in /  0 mm
22:05 4.5 °F /  -15.3 °C -3.8 °F /  -19.9 °C 1029.0 in /  34841.9 hPa NNE 1.6 mph /  2.6 km/h 6.4 mph /  10.3 km/h 55 % 0.0 in /  0 mm
22:08 5.8 °F /  -14.6 °C -4.9 °F /  -20.5 °C 1029.0 in /  34841.9 hPa SSE 3.7 mph /  6 km/h 3.7 mph /  6 km/h 46 % 0.0 in /  0 mm
22:13 5.7 °F /  -14.6 °C -5.1 °F /  -20.6 °C 1029.0 in /  34841.9 hPa ENE 1.9 mph /  3.1 km/h   46 % 0.0 in /  0 mm
22:15 4.5 °F /  -15.3 °C -3.8 °F /  -19.9 °C 1029.0 in /  34841.9 hPa NNE 3.2 mph /  5.1 km/h 3.2 mph /  5.1 km/h 55 % 0.0 in /  0 mm
22:18 5.2 °F /  -14.9 °C -5.5 °F /  -20.8 °C 1030.0 in /  34875.8 hPa NNE 3.7 mph /  6 km/h 3.7 mph /  6 km/h 46 % 0.0 in /  0 mm
22:23 5.1 °F /  -14.9 °C -5.6 °F /  -20.9 °C 1030.0 in /  34875.8 hPa SW 4.2 mph /  6.8 km/h 4.2 mph /  6.8 km/h 46 % 0.0 in /  0 mm
22:25 4.4 °F /  -15.3 °C -3.9 °F /  -19.9 °C 1029.0 in /  34841.9 hPa Calm   3.2 mph /  5.1 km/h 55 % 0.0 in /  0 mm
22:28 4.8 °F /  -15.1 °C -5.9 °F /  -21.1 °C 1030.0 in /  34875.8 hPa WSW 3.7 mph /  6 km/h 3.7 mph /  6 km/h 46 % 0.0 in /  0 mm
22:33 4.8 °F /  -15.1 °C -5.9 °F /  -21.1 °C 1030.0 in /  34875.8 hPa West 3.9 mph /  6.3 km/h 3.9 mph /  6.3 km/h 46 % 0.0 in /  0 mm
22:35 4.3 °F /  -15.4 °C -3.9 °F /  -19.9 °C 1029.0 in /  34841.9 hPa NNE 1.6 mph /  2.6 km/h 3.2 mph /  5.1 km/h 55 % 0.0 in /  0 mm
22:38 4.8 °F /  -15.1 °C -5.6 °F /  -20.9 °C 1030.0 in /  34875.8 hPa SSW 1.9 mph /  3.1 km/h 1.9 mph /  3.1 km/h 47 % 0.0 in /  0 mm
22:43 5.0 °F /  -15 °C -5.4 °F /  -20.8 °C 1030.0 in /  34875.8 hPa WNW 3.7 mph /  6 km/h 3.7 mph /  6 km/h 47 % 0.0 in /  0 mm
22:45 4.5 °F /  -15.3 °C -3.8 °F /  -19.9 °C 1029.0 in /  34841.9 hPa North 3.2 mph /  5.1 km/h 4.8 mph /  7.7 km/h 55 % 0.0 in /  0 mm
22:48 5.0 °F /  -15 °C -5.4 °F /  -20.8 °C 1030.0 in /  34875.8 hPa Calm     47 % 0.0 in /  0 mm
22:53 5.1 °F /  -14.9 °C -5.3 °F /  -20.7 °C 1030.0 in /  34875.8 hPa WSW 3.7 mph /  6 km/h 3.7 mph /  6 km/h 47 % 0.0 in /  0 mm
22:55 4.5 °F /  -15.3 °C -3.8 °F /  -19.9 °C 1029.0 in /  34841.9 hPa NNE 3.2 mph /  5.1 km/h 6.4 mph /  10.3 km/h 55 % 0.0 in /  0 mm
22:58 5.1 °F /  -14.9 °C -5.0 °F /  -20.6 °C 1030.0 in /  34875.8 hPa NNE 1.9 mph /  3.1 km/h   48 % 0.0 in /  0 mm
23:03 5.2 °F /  -14.9 °C -4.9 °F /  -20.5 °C 1030.0 in /  34875.8 hPa NNE 3.7 mph /  6 km/h 3.7 mph /  6 km/h 48 % 0.0 in /  0 mm
23:05 4.2 °F /  -15.4 °C -4.1 °F /  -20.1 °C 1029.0 in /  34841.9 hPa NE 4.8 mph /  7.7 km/h 4.8 mph /  7.7 km/h 55 % 0.0 in /  0 mm
23:08 5.5 °F /  -14.7 °C -4.7 °F /  -20.4 °C 1030.0 in /  34875.8 hPa SW 3.9 mph /  6.3 km/h 3.9 mph /  6.3 km/h 48 % 0.0 in /  0 mm
23:13 4.9 °F /  -15.1 °C -5.2 °F /  -20.7 °C 1030.0 in /  34875.8 hPa ENE 2.6 mph /  4.2 km/h   48 % 0.0 in /  0 mm
23:15 3.8 °F /  -15.7 °C -4.4 °F /  -20.2 °C 1029.0 in /  34841.9 hPa NNE 1.6 mph /  2.6 km/h 4.8 mph /  7.7 km/h 55 % 0.0 in /  0 mm
23:18 4.8 °F /  -15.1 °C -5.1 °F /  -20.6 °C 1030.0 in /  34875.8 hPa ENE 1.9 mph /  3.1 km/h   49 % 0.0 in /  0 mm
23:20 4.8 °F /  -15.1 °C -5.1 °F /  -20.6 °C 1030.0 in /  34875.8 hPa Calm     49 % 0.0 in /  0 mm
23:25 4.8 °F /  -15.1 °C -5.1 °F /  -20.6 °C 1030.0 in /  34875.8 hPa Calm     49 % 0.0 in /  0 mm
23:30 4.8 °F /  -15.1 °C -4.8 °F /  -20.4 °C 1030.0 in /  34875.8 hPa Calm     50 % 0.0 in /  0 mm
23:35 4.8 °F /  -15.1 °C -4.8 °F /  -20.4 °C 1030.0 in /  34875.8 hPa Calm     50 % 0.0 in /  0 mm
23:40 5.0 °F /  -15 °C -4.6 °F /  -20.3 °C 1030.0 in /  34875.8 hPa WNW 1.9 mph /  3.1 km/h 1.9 mph /  3.1 km/h 50 % 0.0 in /  0 mm
23:45 4.9 °F /  -15.1 °C -4.7 °F /  -20.4 °C 1030.0 in /  34875.8 hPa East 2.3 mph /  3.7 km/h 2.3 mph /  3.7 km/h 50 % 0.0 in /  0 mm
23:50 4.8 °F /  -15.1 °C -4.8 °F /  -20.4 °C 1030.0 in /  34875.8 hPa Calm     50 % 0.0 in /  0 mm
23:55 4.5 °F /  -15.3 °C -5.1 °F /  -20.6 °C 1030.0 in /  34875.8 hPa Calm     50 % 0.0 in /  0 mm
Meteo Sesrovires
Elogis d' Weather Underground - 2 mb

Guio original per  Jim McMurry - jmcmurry@mwt.net Adaptat per a la plantilla per  Wim van der Kuil - Leuven-Template.eu

Trobareu la nostra informacio del temps tambe a:

Weather Underground

AWEKAS